sensor_id;sensor_type;location;lat;lon;timestamp;pressure;altitude;pressure_sealevel;temperature;humidity
51081;BME280;37130;55.670;37.596;2022-11-20T00:01:13;99519.19;;;-2.59;86.19
51081;BME280;37130;55.670;37.596;2022-11-20T00:03:40;99513.97;;;-2.57;85.25
51081;BME280;37130;55.670;37.596;2022-11-20T00:06:09;99513.13;;;-2.61;85.50
51081;BME280;37130;55.670;37.596;2022-11-20T00:08:36;99518.28;;;-2.64;86.23
51081;BME280;37130;55.670;37.596;2022-11-20T00:13:32;99509.63;;;-2.71;86.23
51081;BME280;37130;55.670;37.596;2022-11-20T00:16:00;99518.25;;;-2.72;86.08
51081;BME280;37130;55.670;37.596;2022-11-20T00:18:28;99515.72;;;-2.61;86.41
51081;BME280;37130;55.670;37.596;2022-11-20T00:21:06;99509.66;;;-2.57;86.19
51081;BME280;37130;55.670;37.596;2022-11-20T00:23:33;99523.47;;;-2.61;86.18
51081;BME280;37130;55.670;37.596;2022-11-20T00:26:02;99518.31;;;-2.61;85.90
51081;BME280;37130;55.670;37.596;2022-11-20T00:28:30;99524.38;;;-2.56;86.09
51081;BME280;37130;55.670;37.596;2022-11-20T00:31:01;99521.78;;;-2.62;86.06
51081;BME280;37130;55.670;37.596;2022-11-20T00:33:28;99520.00;;;-2.72;86.12
51081;BME280;37130;55.670;37.596;2022-11-20T00:36:00;99526.84;;;-2.80;86.42
51081;BME280;37130;55.670;37.596;2022-11-20T00:38:28;99531.16;;;-2.85;86.06
51081;BME280;37130;55.670;37.596;2022-11-20T00:40:59;99527.63;;;-2.97;86.64
51081;BME280;37130;55.670;37.596;2022-11-20T00:43:29;99527.59;;;-3.01;86.72
51081;BME280;37130;55.670;37.596;2022-11-20T00:45:57;99524.16;;;-3.03;86.40
51081;BME280;37130;55.670;37.596;2022-11-20T00:48:25;99526.75;;;-3.00;86.81
51081;BME280;37130;55.670;37.596;2022-11-20T00:50:52;99521.59;;;-2.94;86.74
51081;BME280;37130;55.670;37.596;2022-11-20T00:53:20;99523.31;;;-2.95;85.83
51081;BME280;37130;55.670;37.596;2022-11-20T00:55:57;99522.44;;;-2.97;86.09
51081;BME280;37130;55.670;37.596;2022-11-20T00:58:28;99529.34;;;-3.00;86.29
51081;BME280;37130;55.670;37.596;2022-11-20T01:03:32;99525.88;;;-3.01;86.60
51081;BME280;37130;55.670;37.596;2022-11-20T01:06:00;99523.28;;;-3.01;85.92
51081;BME280;37130;55.670;37.596;2022-11-20T01:08:32;99520.69;;;-2.99;87.09
51081;BME280;37130;55.670;37.596;2022-11-20T01:11:03;99525.03;;;-2.94;86.33
51081;BME280;37130;55.670;37.596;2022-11-20T01:13:30;99534.56;;;-2.91;86.13
51081;BME280;37130;55.670;37.596;2022-11-20T01:18:34;99520.66;;;-3.05;86.44
51081;BME280;37130;55.670;37.596;2022-11-20T01:21:03;99530.09;;;-3.15;86.61
51081;BME280;37130;55.670;37.596;2022-11-20T01:23:31;99530.09;;;-3.17;86.80
51081;BME280;37130;55.670;37.596;2022-11-20T01:25:59;99530.13;;;-3.12;86.50
51081;BME280;37130;55.670;37.596;2022-11-20T01:28:27;99526.69;;;-3.14;86.43
51081;BME280;37130;55.670;37.596;2022-11-20T01:30:55;99525.78;;;-3.19;86.53
51081;BME280;37130;55.670;37.596;2022-11-20T01:33:22;99533.47;;;-3.25;86.56
51081;BME280;37130;55.670;37.596;2022-11-20T01:35:49;99530.06;;;-3.21;86.63
51081;BME280;37130;55.670;37.596;2022-11-20T01:38:17;99530.91;;;-3.22;85.99
51081;BME280;37130;55.670;37.596;2022-11-20T01:40:44;99534.38;;;-3.22;86.67
51081;BME280;37130;55.670;37.596;2022-11-20T01:43:13;99538.69;;;-3.21;86.39
51081;BME280;37130;55.670;37.596;2022-11-20T01:48:24;99539.63;;;-3.11;86.70
51081;BME280;37130;55.670;37.596;2022-11-20T01:50:52;99536.19;;;-3.10;86.55
51081;BME280;37130;55.670;37.596;2022-11-20T01:53:21;99547.34;;;-3.17;86.41
51081;BME280;37130;55.670;37.596;2022-11-20T01:55:51;99555.13;;;-3.19;86.23
51081;BME280;37130;55.670;37.596;2022-11-20T01:58:21;99549.06;;;-3.21;86.33
51081;BME280;37130;55.670;37.596;2022-11-20T02:00:50;99556.81;;;-3.24;86.47
51081;BME280;37130;55.670;37.596;2022-11-20T02:03:18;99565.41;;;-3.28;86.60
51081;BME280;37130;55.670;37.596;2022-11-20T02:08:19;99572.31;;;-3.30;85.74
51081;BME280;37130;55.670;37.596;2022-11-20T02:10:47;99565.41;;;-3.28;86.29
51081;BME280;37130;55.670;37.596;2022-11-20T02:13:14;99574.94;;;-3.27;86.63
51081;BME280;37130;55.670;37.596;2022-11-20T02:16:01;99573.22;;;-3.23;87.05
51081;BME280;37130;55.670;37.596;2022-11-20T02:18:28;99571.53;;;-3.15;86.37
51081;BME280;37130;55.670;37.596;2022-11-20T02:21:06;99569.84;;;-3.13;85.82
51081;BME280;37130;55.670;37.596;2022-11-20T02:26:03;99579.38;;;-3.09;86.52
51081;BME280;37130;55.670;37.596;2022-11-20T02:28:31;99581.13;;;-3.03;86.01
51081;BME280;37130;55.670;37.596;2022-11-20T02:30:59;99581.94;;;-3.08;86.54
51081;BME280;37130;55.670;37.596;2022-11-20T02:33:27;99590.56;;;-3.10;86.41
51081;BME280;37130;55.670;37.596;2022-11-20T02:35:54;99595.75;;;-3.07;86.27
51081;BME280;37130;55.670;37.596;2022-11-20T02:38:21;99588.84;;;-3.10;85.86
51081;BME280;37130;55.670;37.596;2022-11-20T02:40:49;99591.47;;;-3.06;86.10
51081;BME280;37130;55.670;37.596;2022-11-20T02:43:22;99588.06;;;-2.99;86.63
51081;BME280;37130;55.670;37.596;2022-11-20T02:45:50;99593.19;;;-3.07;85.65
51081;BME280;37130;55.670;37.596;2022-11-20T02:48:17;99594.88;;;-3.11;85.81
51081;BME280;37130;55.670;37.596;2022-11-20T02:50:44;99594.88;;;-3.14;85.80
51081;BME280;37130;55.670;37.596;2022-11-20T02:53:12;99595.69;;;-3.19;86.51
51081;BME280;37130;55.670;37.596;2022-11-20T02:55:39;99593.09;;;-3.19;85.98
51081;BME280;37130;55.670;37.596;2022-11-20T02:58:06;99597.38;;;-3.27;86.39
51081;BME280;37130;55.670;37.596;2022-11-20T03:00:34;99589.59;;;-3.26;86.25
51081;BME280;37130;55.670;37.596;2022-11-20T03:03:02;99591.31;;;-3.26;86.42
51081;BME280;37130;55.670;37.596;2022-11-20T03:05:29;99594.78;;;-3.26;86.75
51081;BME280;37130;55.670;37.596;2022-11-20T03:07:57;99594.72;;;-3.31;86.66
51081;BME280;37130;55.670;37.596;2022-11-20T03:10:24;99596.50;;;-3.26;86.95
51081;BME280;37130;55.670;37.596;2022-11-20T03:12:54;99593.03;;;-3.25;86.38
51081;BME280;37130;55.670;37.596;2022-11-20T03:15:23;99598.19;;;-3.32;86.54
51081;BME280;37130;55.670;37.596;2022-11-20T03:17:52;99602.44;;;-3.40;86.75
51081;BME280;37130;55.670;37.596;2022-11-20T03:20:20;99606.75;;;-3.40;87.23
51081;BME280;37130;55.670;37.596;2022-11-20T03:22:47;99612.81;;;-3.37;86.63
51081;BME280;37130;55.670;37.596;2022-11-20T03:25:15;99607.66;;;-3.31;86.67
51081;BME280;37130;55.670;37.596;2022-11-20T03:27:42;99612.03;;;-3.29;86.67
51081;BME280;37130;55.670;37.596;2022-11-20T03:30:09;99612.03;;;-3.26;86.57
51081;BME280;37130;55.670;37.596;2022-11-20T03:32:37;99606.00;;;-3.24;86.64
51081;BME280;37130;55.670;37.596;2022-11-20T03:35:04;99610.41;;;-3.17;86.36
51081;BME280;37130;55.670;37.596;2022-11-20T03:37:32;99610.38;;;-3.18;86.51
51081;BME280;37130;55.670;37.596;2022-11-20T03:39:59;99609.44;;;-3.25;86.27
51081;BME280;37130;55.670;37.596;2022-11-20T03:42:26;99608.53;;;-3.35;86.25
51081;BME280;37130;55.670;37.596;2022-11-20T03:45:16;99615.41;;;-3.37;86.69
51081;BME280;37130;55.670;37.596;2022-11-20T03:47:43;99614.50;;;-3.39;86.54
51081;BME280;37130;55.670;37.596;2022-11-20T03:50:12;99607.59;;;-3.43;86.31
51081;BME280;37130;55.670;37.596;2022-11-20T03:52:40;99618.81;;;-3.42;86.31
51081;BME280;37130;55.670;37.596;2022-11-20T03:55:07;99623.16;;;-3.40;86.60
51081;BME280;37130;55.670;37.596;2022-11-20T03:57:35;99620.63;;;-3.32;86.01
51081;BME280;37130;55.670;37.596;2022-11-20T04:00:02;99624.97;;;-3.29;86.67
51081;BME280;37130;55.670;37.596;2022-11-20T04:02:30;99631.03;;;-3.27;86.53
51081;BME280;37130;55.670;37.596;2022-11-20T04:04:57;99632.72;;;-3.28;86.29
51081;BME280;37130;55.670;37.596;2022-11-20T04:07:25;99630.97;;;-3.31;86.17
51081;BME280;37130;55.670;37.596;2022-11-20T04:09:52;99628.41;;;-3.29;86.63
51081;BME280;37130;55.670;37.596;2022-11-20T04:12:19;99636.19;;;-3.26;86.27
51081;BME280;37130;55.670;37.596;2022-11-20T04:14:46;99631.03;;;-3.27;86.09
51081;BME280;37130;55.670;37.596;2022-11-20T04:17:14;99637.03;;;-3.28;86.44
51081;BME280;37130;55.670;37.596;2022-11-20T04:19:41;99640.50;;;-3.29;85.89
51081;BME280;37130;55.670;37.596;2022-11-20T04:22:08;99650.81;;;-3.34;86.56
51081;BME280;37130;55.670;37.596;2022-11-20T04:24:35;99649.03;;;-3.40;86.42
51081;BME280;37130;55.670;37.596;2022-11-20T04:27:02;99648.16;;;-3.40;86.51
51081;BME280;37130;55.670;37.596;2022-11-20T04:29:30;99656.03;;;-3.29;86.57
51081;BME280;37130;55.670;37.596;2022-11-20T04:31:57;99654.31;;;-3.29;86.45
51081;BME280;37130;55.670;37.596;2022-11-20T04:34:24;99656.91;;;-3.29;86.27
51081;BME280;37130;55.670;37.596;2022-11-20T04:36:52;99653.50;;;-3.23;86.46
51081;BME280;37130;55.670;37.596;2022-11-20T04:39:19;99656.97;;;-3.21;86.27
51081;BME280;37130;55.670;37.596;2022-11-20T04:41:47;99660.41;;;-3.22;86.04
51081;BME280;37130;55.670;37.596;2022-11-20T04:44:14;99674.22;;;-3.20;86.37
51081;BME280;37130;55.670;37.596;2022-11-20T04:46:41;99678.56;;;-3.19;86.11
51081;BME280;37130;55.670;37.596;2022-11-20T04:49:10;99675.13;;;-3.15;85.80
51081;BME280;37130;55.670;37.596;2022-11-20T04:51:37;99675.91;;;-3.25;86.22
51081;BME280;37130;55.670;37.596;2022-11-20T04:54:05;99686.25;;;-3.28;86.19
51081;BME280;37130;55.670;37.596;2022-11-20T04:56:32;99687.91;;;-3.37;86.30
51081;BME280;37130;55.670;37.596;2022-11-20T04:59:00;99693.94;;;-3.38;86.08
51081;BME280;37130;55.670;37.596;2022-11-20T05:01:27;99691.25;;;-3.44;85.96
51081;BME280;37130;55.670;37.596;2022-11-20T05:03:54;99697.28;;;-3.48;86.28
51081;BME280;37130;55.670;37.596;2022-11-20T05:06:21;99697.28;;;-3.46;86.54
51081;BME280;37130;55.670;37.596;2022-11-20T05:08:49;99695.56;;;-3.46;86.27
51081;BME280;37130;55.670;37.596;2022-11-20T05:11:18;99699.06;;;-3.42;86.83
51081;BME280;37130;55.670;37.596;2022-11-20T05:13:46;99701.69;;;-3.36;86.18
51081;BME280;37130;55.670;37.596;2022-11-20T05:16:14;99698.34;;;-3.26;86.15
51081;BME280;37130;55.670;37.596;2022-11-20T05:18:42;99708.63;;;-3.35;86.24
51081;BME280;37130;55.670;37.596;2022-11-20T05:21:09;99712.84;;;-3.45;86.34
51081;BME280;37130;55.670;37.596;2022-11-20T05:23:37;99708.56;;;-3.41;86.56
51081;BME280;37130;55.670;37.596;2022-11-20T05:26:05;99710.34;;;-3.37;85.96
51081;BME280;37130;55.670;37.596;2022-11-20T05:28:33;99720.72;;;-3.34;86.43
51081;BME280;37130;55.670;37.596;2022-11-20T05:31:07;99724.19;;;-3.31;85.92
51081;BME280;37130;55.670;37.596;2022-11-20T05:33:35;99726.78;;;-3.31;85.92
51081;BME280;37130;55.670;37.596;2022-11-20T05:36:03;99723.34;;;-3.33;86.68
51081;BME280;37130;55.670;37.596;2022-11-20T05:38:31;99732.84;;;-3.28;86.02
51081;BME280;37130;55.670;37.596;2022-11-20T05:41:11;99726.78;;;-3.32;85.75
51081;BME280;37130;55.670;37.596;2022-11-20T05:43:39;99733.75;;;-3.26;85.77
51081;BME280;37130;55.670;37.596;2022-11-20T05:46:07;99738.97;;;-3.20;86.16
51081;BME280;37130;55.670;37.596;2022-11-20T05:48:35;99743.31;;;-3.19;85.68
51081;BME280;37130;55.670;37.596;2022-11-20T05:51:03;99751.16;;;-3.10;85.92
51081;BME280;37130;55.670;37.596;2022-11-20T05:53:31;99747.75;;;-3.04;85.17
51081;BME280;37130;55.670;37.596;2022-11-20T05:56:03;99751.28;;;-2.96;85.47
51081;BME280;37130;55.670;37.596;2022-11-20T05:58:31;99750.47;;;-2.95;85.46
51081;BME280;37130;55.670;37.596;2022-11-20T06:03:32;99764.31;;;-2.93;84.97
51081;BME280;37130;55.670;37.596;2022-11-20T06:06:00;99766.06;;;-2.86;86.00
51081;BME280;37130;55.670;37.596;2022-11-20T06:08:28;99767.91;;;-2.77;85.38
51081;BME280;37130;55.670;37.596;2022-11-20T06:10:55;99762.78;;;-2.70;85.36
51081;BME280;37130;55.670;37.596;2022-11-20T06:13:22;99763.69;;;-2.65;85.58
51081;BME280;37130;55.670;37.596;2022-11-20T06:15:50;99767.91;;;-2.73;85.54
51081;BME280;37130;55.670;37.596;2022-11-20T06:18:17;99770.44;;;-2.80;85.06
51081;BME280;37130;55.670;37.596;2022-11-20T06:20:45;99767.84;;;-2.85;85.89
51081;BME280;37130;55.670;37.596;2022-11-20T06:23:13;99786.13;;;-2.70;85.05
51081;BME280;37130;55.670;37.596;2022-11-20T06:25:40;99792.16;;;-2.69;85.55
51081;BME280;37130;55.670;37.596;2022-11-20T06:28:08;99805.03;;;-2.75;85.70
51081;BME280;37130;55.670;37.596;2022-11-20T06:30:35;99804.19;;;-2.76;86.04
51081;BME280;37130;55.670;37.596;2022-11-20T06:33:03;99796.47;;;-2.68;85.90
51081;BME280;37130;55.670;37.596;2022-11-20T06:35:30;99805.09;;;-2.72;85.10
51081;BME280;37130;55.670;37.596;2022-11-20T06:37:58;99805.88;;;-2.79;85.09
51081;BME280;37130;55.670;37.596;2022-11-20T06:40:25;99803.28;;;-2.79;85.63
51081;BME280;37130;55.670;37.596;2022-11-20T06:42:53;99808.47;;;-2.79;85.11
51081;BME280;37130;55.670;37.596;2022-11-20T06:45:21;99800.69;;;-2.78;85.37
51081;BME280;37130;55.670;37.596;2022-11-20T06:47:48;99794.69;;;-2.77;85.64
51081;BME280;37130;55.670;37.596;2022-11-20T06:50:15;99798.09;;;-2.78;85.11
51081;BME280;37130;55.670;37.596;2022-11-20T06:52:43;99793.84;;;-2.73;85.53
51081;BME280;37130;55.670;37.596;2022-11-20T06:55:10;99797.34;;;-2.68;84.80
51081;BME280;37130;55.670;37.596;2022-11-20T06:57:38;99796.53;;;-2.60;85.72
51081;BME280;37130;55.670;37.596;2022-11-20T07:00:05;99797.47;;;-2.54;85.02
51081;BME280;37130;55.670;37.596;2022-11-20T07:02:33;99799.19;;;-2.54;85.00
51081;BME280;37130;55.670;37.596;2022-11-20T07:05:00;99792.22;;;-2.61;85.26
51081;BME280;37130;55.670;37.596;2022-11-20T07:07:28;99785.31;;;-2.61;85.13
51081;BME280;37130;55.670;37.596;2022-11-20T07:09:55;99783.59;;;-2.57;85.14
51081;BME280;37130;55.670;37.596;2022-11-20T07:12:23;99783.59;;;-2.59;85.29
51081;BME280;37130;55.670;37.596;2022-11-20T07:14:50;99788.84;;;-2.53;84.78
51081;BME280;37130;55.670;37.596;2022-11-20T07:17:17;99788.94;;;-2.40;84.42
51081;BME280;37130;55.670;37.596;2022-11-20T07:19:45;99801.97;;;-2.28;84.42
51081;BME280;37130;55.670;37.596;2022-11-20T07:22:12;99808.09;;;-2.22;84.54
51081;BME280;37130;55.670;37.596;2022-11-20T07:24:40;99800.28;;;-2.23;83.89
51081;BME280;37130;55.670;37.596;2022-11-20T07:27:11;99802.88;;;-2.23;84.15
51081;BME280;37130;55.670;37.596;2022-11-20T07:29:39;99798.47;;;-2.33;84.74
51081;BME280;37130;55.670;37.596;2022-11-20T07:32:06;99802.03;;;-2.25;84.64
51081;BME280;37130;55.670;37.596;2022-11-20T07:34:33;99808.13;;;-2.18;84.36
51081;BME280;37130;55.670;37.596;2022-11-20T07:37:00;99813.31;;;-2.15;84.81
51081;BME280;37130;55.670;37.596;2022-11-20T07:39:36;99806.41;;;-2.13;83.84
51081;BME280;37130;55.670;37.596;2022-11-20T07:42:03;99816.78;;;-2.13;84.65
51081;BME280;37130;55.670;37.596;2022-11-20T07:44:30;99816.78;;;-2.13;84.81
51081;BME280;37130;55.670;37.596;2022-11-20T07:46:58;99816.84;;;-2.09;84.14
51081;BME280;37130;55.670;37.596;2022-11-20T07:49:25;99822.00;;;-2.10;83.71
51081;BME280;37130;55.670;37.596;2022-11-20T07:51:53;99828.88;;;-2.15;83.93
51081;BME280;37130;55.670;37.596;2022-11-20T07:54:20;99821.97;;;-2.15;83.88
51081;BME280;37130;55.670;37.596;2022-11-20T07:56:48;99821.94;;;-2.21;84.01
51081;BME280;37130;55.670;37.596;2022-11-20T07:59:15;99814.13;;;-2.27;84.45
51081;BME280;37130;55.670;37.596;2022-11-20T08:01:42;99814.13;;;-2.27;84.33
51081;BME280;37130;55.670;37.596;2022-11-20T08:04:10;99825.44;;;-2.16;84.44
51081;BME280;37130;55.670;37.596;2022-11-20T08:06:38;99828.91;;;-2.12;84.01
51081;BME280;37130;55.670;37.596;2022-11-20T08:09:05;99825.47;;;-2.08;84.73
51081;BME280;37130;55.670;37.596;2022-11-20T08:11:32;99833.31;;;-2.01;84.53
51081;BME280;37130;55.670;37.596;2022-11-20T08:14:18;99839.41;;;-1.95;84.30
51081;BME280;37130;55.670;37.596;2022-11-20T08:16:46;99844.59;;;-1.95;84.15
51081;BME280;37130;55.670;37.596;2022-11-20T08:19:14;99838.50;;;-2.01;83.78
51081;BME280;37130;55.670;37.596;2022-11-20T08:21:42;99835.00;;;-2.07;84.58
51081;BME280;37130;55.670;37.596;2022-11-20T08:24:09;99828.91;;;-2.14;84.49
51081;BME280;37130;55.670;37.596;2022-11-20T08:26:37;99835.78;;;-2.22;84.62
51081;BME280;37130;55.670;37.596;2022-11-20T08:29:05;99843.63;;;-2.14;85.02
51081;BME280;37130;55.670;37.596;2022-11-20T08:31:32;99855.78;;;-2.03;84.16
51081;BME280;37130;55.670;37.596;2022-11-20T08:34:00;99846.34;;;-1.94;84.33
51081;BME280;37130;55.670;37.596;2022-11-20T08:36:33;99851.56;;;-1.90;83.51
51081;BME280;37130;55.670;37.596;2022-11-20T08:39:01;99850.72;;;-1.84;84.43
51081;BME280;37130;55.670;37.596;2022-11-20T08:41:29;99845.63;;;-1.72;83.89
51081;BME280;37130;55.670;37.596;2022-11-20T08:44:00;99843.94;;;-1.61;83.40
51081;BME280;37130;55.670;37.596;2022-11-20T08:46:32;99846.59;;;-1.53;83.60
51081;BME280;37130;55.670;37.596;2022-11-20T08:49:00;99850.94;;;-1.50;83.63
51081;BME280;37130;55.670;37.596;2022-11-20T08:51:27;99855.25;;;-1.49;82.95
51081;BME280;37130;55.670;37.596;2022-11-20T08:53:55;99852.69;;;-1.48;83.03
51081;BME280;37130;55.670;37.596;2022-11-20T08:56:22;99868.28;;;-1.42;82.90
51081;BME280;37130;55.670;37.596;2022-11-20T08:58:49;99881.28;;;-1.37;82.87
51081;BME280;37130;55.670;37.596;2022-11-20T09:01:37;99877.84;;;-1.36;82.89
51081;BME280;37130;55.670;37.596;2022-11-20T09:04:05;99888.25;;;-1.35;82.60
51081;BME280;37130;55.670;37.596;2022-11-20T09:06:33;99894.28;;;-1.34;82.86
51081;BME280;37130;55.670;37.596;2022-11-20T09:09:00;99897.78;;;-1.29;83.07
51081;BME280;37130;55.670;37.596;2022-11-20T09:11:34;99890.03;;;-1.24;82.78
51081;BME280;37130;55.670;37.596;2022-11-20T09:14:01;99894.34;;;-1.23;82.48
51081;BME280;37130;55.670;37.596;2022-11-20T09:16:29;99901.25;;;-1.28;82.98
51081;BME280;37130;55.670;37.596;2022-11-20T09:18:56;99907.34;;;-1.28;83.30
51081;BME280;37130;55.670;37.596;2022-11-20T09:21:44;99912.53;;;-1.23;83.03
51081;BME280;37130;55.670;37.596;2022-11-20T09:24:11;99926.41;;;-1.21;83.05
51081;BME280;37130;55.670;37.596;2022-11-20T09:26:38;99928.16;;;-1.22;83.23
51081;BME280;37130;55.670;37.596;2022-11-20T09:29:05;99935.91;;;-1.28;82.69
51081;BME280;37130;55.670;37.596;2022-11-20T09:31:33;99943.69;;;-1.33;83.20
51081;BME280;37130;55.670;37.596;2022-11-20T09:34:01;99934.16;;;-1.29;83.13
51081;BME280;37130;55.670;37.596;2022-11-20T09:36:28;99938.50;;;-1.26;83.08
51081;BME280;37130;55.670;37.596;2022-11-20T09:38:55;99940.25;;;-1.25;83.23
51081;BME280;37130;55.670;37.596;2022-11-20T09:41:39;99939.41;;;-1.23;83.44
51081;BME280;37130;55.670;37.596;2022-11-20T09:49:13;99944.56;;;-1.29;83.39
51081;BME280;37130;55.670;37.596;2022-11-20T09:54:21;99941.97;;;-1.29;82.76
51081;BME280;37130;55.670;37.596;2022-11-20T09:56:58;99947.16;;;-1.26;83.33
51081;BME280;37130;55.670;37.596;2022-11-20T10:00:00;99950.66;;;-1.25;83.09
51081;BME280;37130;55.670;37.596;2022-11-20T10:10:33;99951.59;;;-1.08;83.46
51081;BME280;37130;55.670;37.596;2022-11-20T10:31:11;99956.91;;;-0.91;82.99
51081;BME280;37130;55.670;37.596;2022-11-20T10:33:42;99963.81;;;-0.90;83.10
51081;BME280;37130;55.670;37.596;2022-11-20T10:36:33;99953.44;;;-0.87;83.18
51081;BME280;37130;55.670;37.596;2022-11-20T10:41:49;99959.50;;;-0.86;83.28
51081;BME280;37130;55.670;37.596;2022-11-20T10:44:24;99963.00;;;-0.83;83.06
51081;BME280;37130;55.670;37.596;2022-11-20T10:47:17;99955.19;;;-0.80;82.78
51081;BME280;37130;55.670;37.596;2022-11-20T10:49:46;99962.13;;;-0.79;82.70
51081;BME280;37130;55.670;37.596;2022-11-20T10:52:50;99977.72;;;-0.79;82.93
51081;BME280;37130;55.670;37.596;2022-11-20T11:00:14;99992.47;;;-0.79;83.28
51081;BME280;37130;55.670;37.596;2022-11-20T11:02:50;99978.59;;;-0.80;83.03
51081;BME280;37130;55.670;37.596;2022-11-20T11:05:22;99989.00;;;-0.83;82.90
51081;BME280;37130;55.670;37.596;2022-11-20T11:07:54;99984.63;;;-0.89;83.04
51081;BME280;37130;55.670;37.596;2022-11-20T11:10:24;99993.28;;;-0.91;83.21
51081;BME280;37130;55.670;37.596;2022-11-20T11:12:55;99990.69;;;-0.94;83.33
51081;BME280;37130;55.670;37.596;2022-11-20T11:17:52;99988.09;;;-0.94;83.35
51081;BME280;37130;55.670;37.596;2022-11-20T11:20:23;99995.84;;;-0.97;83.02
51081;BME280;37130;55.670;37.596;2022-11-20T11:22:51;100001.91;;;-0.98;83.20
51081;BME280;37130;55.670;37.596;2022-11-20T11:25:41;100002.78;;;-0.98;82.94
51081;BME280;37130;55.670;37.596;2022-11-20T11:28:21;100005.38;;;-1.01;83.02
51081;BME280;37130;55.670;37.596;2022-11-20T11:30:48;99994.94;;;-1.02;83.13
51081;BME280;37130;55.670;37.596;2022-11-20T11:33:20;100007.09;;;-1.04;83.00
51081;BME280;37130;55.670;37.596;2022-11-20T11:35:49;99996.66;;;-1.07;83.12
51081;BME280;37130;55.670;37.596;2022-11-20T11:38:21;100002.72;;;-1.10;82.97
51081;BME280;37130;55.670;37.596;2022-11-20T11:40:52;100002.69;;;-1.13;83.08
51081;BME280;37130;55.670;37.596;2022-11-20T11:43:22;100001.81;;;-1.11;83.40
51081;BME280;37130;55.670;37.596;2022-11-20T11:48:42;100005.31;;;-1.12;82.85
51081;BME280;37130;55.670;37.596;2022-11-20T11:51:21;99998.38;;;-1.13;83.04
51081;BME280;37130;55.670;37.596;2022-11-20T11:53:48;99998.38;;;-1.13;83.00
51081;BME280;37130;55.670;37.596;2022-11-20T11:56:16;100010.47;;;-1.16;82.84
51081;BME280;37130;55.670;37.596;2022-11-20T11:58:47;100013.06;;;-1.16;83.08
51081;BME280;37130;55.670;37.596;2022-11-20T12:03:44;100020.88;;;-1.15;83.05
51081;BME280;37130;55.670;37.596;2022-11-20T12:06:16;100016.53;;;-1.14;82.82
51081;BME280;37130;55.670;37.596;2022-11-20T12:08:49;100016.53;;;-1.16;82.84
51081;BME280;37130;55.670;37.596;2022-11-20T12:14:09;100026.91;;;-1.20;82.91
51081;BME280;37130;55.670;37.596;2022-11-20T12:16:39;100019.09;;;-1.22;82.98
51081;BME280;37130;55.670;37.596;2022-11-20T12:19:10;100022.56;;;-1.21;82.82
51081;BME280;37130;55.670;37.596;2022-11-20T12:40:11;100005.16;;;-1.28;82.56
51081;BME280;37130;55.670;37.596;2022-11-20T12:42:52;100010.38;;;-1.30;81.94
51081;BME280;37130;55.670;37.596;2022-11-20T12:45:45;100024.22;;;-1.33;81.95
51081;BME280;37130;55.670;37.596;2022-11-20T13:01:28;100036.31;;;-1.36;81.79
51081;BME280;37130;55.670;37.596;2022-11-20T13:06:54;100050.13;;;-1.43;82.24
51081;BME280;37130;55.670;37.596;2022-11-20T13:09:22;100039.72;;;-1.43;82.42
51081;BME280;37130;55.670;37.596;2022-11-20T13:12:05;100039.72;;;-1.43;82.75
51081;BME280;37130;55.670;37.596;2022-11-20T13:14:45;100038.81;;;-1.48;82.15
51081;BME280;37130;55.670;37.596;2022-11-20T13:20:02;100038.78;;;-1.53;82.76
51081;BME280;37130;55.670;37.596;2022-11-20T13:22:45;100036.19;;;-1.55;82.35
51081;BME280;37130;55.670;37.596;2022-11-20T13:25:23;100043.13;;;-1.50;82.36
51081;BME280;37130;55.670;37.596;2022-11-20T13:27:51;100048.31;;;-1.50;81.70
51081;BME280;37130;55.670;37.596;2022-11-20T13:30:19;100053.50;;;-1.50;82.17
51081;BME280;37130;55.670;37.596;2022-11-20T13:35:34;100050.09;;;-1.46;82.38
51081;BME280;37130;55.670;37.596;2022-11-20T13:40:28;100061.31;;;-1.49;81.96
51081;BME280;37130;55.670;37.596;2022-11-20T13:43:07;100043.97;;;-1.50;81.93
51081;BME280;37130;55.670;37.596;2022-11-20T13:45:35;100050.03;;;-1.49;82.15
51081;BME280;37130;55.670;37.596;2022-11-20T13:48:04;100057.00;;;-1.48;81.89
51081;BME280;37130;55.670;37.596;2022-11-20T13:53:52;100059.63;;;-1.42;81.56
51081;BME280;37130;55.670;37.596;2022-11-20T14:01:08;100059.63;;;-1.42;82.13
51081;BME280;37130;55.670;37.596;2022-11-20T14:03:36;100067.44;;;-1.42;81.66
51081;BME280;37130;55.670;37.596;2022-11-20T14:06:28;100058.78;;;-1.41;81.63
51081;BME280;37130;55.670;37.596;2022-11-20T14:08:57;100064.06;;;-1.34;82.34
51081;BME280;37130;55.670;37.596;2022-11-20T14:11:25;100070.09;;;-1.36;81.31
51081;BME280;37130;55.670;37.596;2022-11-20T14:16:39;100078.66;;;-1.45;82.09
51081;BME280;37130;55.670;37.596;2022-11-20T14:19:23;100091.72;;;-1.37;81.81
51081;BME280;37130;55.670;37.596;2022-11-20T14:21:53;100091.75;;;-1.34;81.62
51081;BME280;37130;55.670;37.596;2022-11-20T14:24:22;100089.13;;;-1.34;81.34
51081;BME280;37130;55.670;37.596;2022-11-20T14:26:50;100083.09;;;-1.36;81.55
51081;BME280;37130;55.670;37.596;2022-11-20T14:29:27;100083.13;;;-1.28;81.73
51081;BME280;37130;55.670;37.596;2022-11-20T14:31:55;100088.38;;;-1.22;81.65
51081;BME280;37130;55.670;37.596;2022-11-20T14:34:33;100085.78;;;-1.25;81.68
51081;BME280;37130;55.670;37.596;2022-11-20T14:37:05;100094.44;;;-1.22;81.75
51081;BME280;37130;55.670;37.596;2022-11-20T14:39:43;100101.41;;;-1.16;81.63
51081;BME280;37130;55.670;37.596;2022-11-20T14:42:15;100103.06;;;-1.26;81.55
51081;BME280;37130;55.670;37.596;2022-11-20T14:44:43;100119.50;;;-1.28;81.33
51081;BME280;37130;55.670;37.596;2022-11-20T14:47:15;100120.44;;;-1.22;81.94
51081;BME280;37130;55.670;37.596;2022-11-20T14:49:44;100121.28;;;-1.21;81.94
51081;BME280;37130;55.670;37.596;2022-11-20T14:52:22;100110.00;;;-1.23;81.55
51081;BME280;37130;55.670;37.596;2022-11-20T14:54:51;100111.81;;;-1.16;82.11
51081;BME280;37130;55.670;37.596;2022-11-20T14:57:25;100104.94;;;-1.08;81.55
51081;BME280;37130;55.670;37.596;2022-11-20T15:00:07;100111.00;;;-1.12;82.07
51081;BME280;37130;55.670;37.596;2022-11-20T15:02:38;100098.81;;;-1.18;81.97
51081;BME280;37130;55.670;37.596;2022-11-20T15:05:06;100103.13;;;-1.20;81.99